sensor_id;sensor_type;location;lat;lon;timestamp;P1;durP1;ratioP1;P2;durP2;ratioP2
51927;SDS011;37953;52.806;18.270;2024-01-06T00:01:16;27.33;;;8.93;;
51927;SDS011;37953;52.806;18.270;2024-01-06T00:03:48;26.38;;;8.40;;
51927;SDS011;37953;52.806;18.270;2024-01-06T00:06:14;28.73;;;9.13;;
51927;SDS011;37953;52.806;18.270;2024-01-06T00:08:40;23.67;;;8.25;;
51927;SDS011;37953;52.806;18.270;2024-01-06T00:11:06;27.98;;;9.40;;
51927;SDS011;37953;52.806;18.270;2024-01-06T00:13:32;28.67;;;8.70;;
51927;SDS011;37953;52.806;18.270;2024-01-06T00:15:58;26.55;;;9.20;;
51927;SDS011;37953;52.806;18.270;2024-01-06T00:18:25;30.10;;;9.60;;
51927;SDS011;37953;52.806;18.270;2024-01-06T00:20:51;22.83;;;8.70;;
51927;SDS011;37953;52.806;18.270;2024-01-06T00:23:18;26.08;;;8.75;;
51927;SDS011;37953;52.806;18.270;2024-01-06T00:25:43;24.60;;;8.00;;
51927;SDS011;37953;52.806;18.270;2024-01-06T00:28:10;21.23;;;7.93;;
51927;SDS011;37953;52.806;18.270;2024-01-06T00:30:35;23.55;;;7.95;;
51927;SDS011;37953;52.806;18.270;2024-01-06T00:33:01;22.90;;;7.90;;
51927;SDS011;37953;52.806;18.270;2024-01-06T00:35:27;20.95;;;7.90;;
51927;SDS011;37953;52.806;18.270;2024-01-06T00:37:54;23.35;;;8.85;;
51927;SDS011;37953;52.806;18.270;2024-01-06T00:42:48;21.75;;;8.35;;
51927;SDS011;37953;52.806;18.270;2024-01-06T00:45:20;31.45;;;7.85;;
51927;SDS011;37953;52.806;18.270;2024-01-06T00:47:47;19.08;;;7.68;;
51927;SDS011;37953;52.806;18.270;2024-01-06T00:50:13;22.20;;;7.82;;
51927;SDS011;37953;52.806;18.270;2024-01-06T00:52:39;27.30;;;8.82;;
51927;SDS011;37953;52.806;18.270;2024-01-06T00:55:07;19.85;;;7.15;;
51927;SDS011;37953;52.806;18.270;2024-01-06T00:57:33;23.25;;;8.50;;
51927;SDS011;37953;52.806;18.270;2024-01-06T00:59:59;25.77;;;8.48;;
51927;SDS011;37953;52.806;18.270;2024-01-06T01:02:25;24.95;;;9.00;;
51927;SDS011;37953;52.806;18.270;2024-01-06T01:04:51;21.52;;;8.27;;
51927;SDS011;37953;52.806;18.270;2024-01-06T01:07:18;32.47;;;10.05;;
51927;SDS011;37953;52.806;18.270;2024-01-06T01:09:44;26.55;;;9.68;;
51927;SDS011;37953;52.806;18.270;2024-01-06T01:12:16;30.02;;;9.38;;
51927;SDS011;37953;52.806;18.270;2024-01-06T01:14:42;23.63;;;8.38;;
51927;SDS011;37953;52.806;18.270;2024-01-06T01:17:08;18.60;;;7.85;;
51927;SDS011;37953;52.806;18.270;2024-01-06T01:19:34;27.10;;;8.55;;
51927;SDS011;37953;52.806;18.270;2024-01-06T01:22:00;24.90;;;9.35;;
51927;SDS011;37953;52.806;18.270;2024-01-06T01:24:26;28.60;;;9.15;;
51927;SDS011;37953;52.806;18.270;2024-01-06T01:26:52;24.40;;;9.35;;
51927;SDS011;37953;52.806;18.270;2024-01-06T01:29:18;22.45;;;8.57;;
51927;SDS011;37953;52.806;18.270;2024-01-06T01:31:46;20.65;;;8.65;;
51927;SDS011;37953;52.806;18.270;2024-01-06T01:34:12;20.70;;;8.52;;
51927;SDS011;37953;52.806;18.270;2024-01-06T01:36:39;28.27;;;9.63;;
51927;SDS011;37953;52.806;18.270;2024-01-06T01:39:05;21.15;;;9.10;;
51927;SDS011;37953;52.806;18.270;2024-01-06T01:41:31;23.25;;;8.85;;
51927;SDS011;37953;52.806;18.270;2024-01-06T01:43:57;28.95;;;8.98;;
51927;SDS011;37953;52.806;18.270;2024-01-06T01:46:27;24.00;;;9.40;;
51927;SDS011;37953;52.806;18.270;2024-01-06T01:48:54;25.63;;;9.73;;
51927;SDS011;37953;52.806;18.270;2024-01-06T01:51:21;26.13;;;10.30;;
51927;SDS011;37953;52.806;18.270;2024-01-06T01:53:48;27.00;;;11.02;;
51927;SDS011;37953;52.806;18.270;2024-01-06T01:56:20;35.50;;;11.68;;
51927;SDS011;37953;52.806;18.270;2024-01-06T01:58:47;31.13;;;11.80;;
51927;SDS011;37953;52.806;18.270;2024-01-06T02:01:13;28.13;;;10.32;;
51927;SDS011;37953;52.806;18.270;2024-01-06T02:03:40;30.75;;;10.80;;
51927;SDS011;37953;52.806;18.270;2024-01-06T02:06:09;27.13;;;9.77;;
51927;SDS011;37953;52.806;18.270;2024-01-06T02:08:38;26.13;;;9.45;;
51927;SDS011;37953;52.806;18.270;2024-01-06T02:11:07;27.38;;;10.45;;
51927;SDS011;37953;52.806;18.270;2024-01-06T02:13:34;26.52;;;10.00;;
51927;SDS011;37953;52.806;18.270;2024-01-06T02:16:03;28.92;;;10.23;;
51927;SDS011;37953;52.806;18.270;2024-01-06T02:18:31;28.05;;;11.07;;
51927;SDS011;37953;52.806;18.270;2024-01-06T02:21:01;27.98;;;10.45;;
51927;SDS011;37953;52.806;18.270;2024-01-06T02:23:28;30.75;;;11.13;;
51927;SDS011;37953;52.806;18.270;2024-01-06T02:25:55;24.70;;;9.90;;
51927;SDS011;37953;52.806;18.270;2024-01-06T02:28:22;24.20;;;10.10;;
51927;SDS011;37953;52.806;18.270;2024-01-06T02:30:48;23.20;;;10.52;;
51927;SDS011;37953;52.806;18.270;2024-01-06T02:33:14;28.73;;;11.10;;
51927;SDS011;37953;52.806;18.270;2024-01-06T02:35:40;23.48;;;10.52;;
51927;SDS011;37953;52.806;18.270;2024-01-06T02:38:06;25.98;;;10.57;;
51927;SDS011;37953;52.806;18.270;2024-01-06T02:43:04;24.73;;;10.20;;
51927;SDS011;37953;52.806;18.270;2024-01-06T02:45:30;23.13;;;10.48;;
51927;SDS011;37953;52.806;18.270;2024-01-06T02:47:56;22.23;;;10.40;;
51927;SDS011;37953;52.806;18.270;2024-01-06T02:50:22;24.20;;;10.95;;
51927;SDS011;37953;52.806;18.270;2024-01-06T02:52:48;28.75;;;11.32;;
51927;SDS011;37953;52.806;18.270;2024-01-06T02:55:14;30.52;;;11.70;;
51927;SDS011;37953;52.806;18.270;2024-01-06T02:57:40;61.45;;;21.10;;
51927;SDS011;37953;52.806;18.270;2024-01-06T03:00:07;61.58;;;22.60;;
51927;SDS011;37953;52.806;18.270;2024-01-06T03:02:33;42.70;;;16.52;;
51927;SDS011;37953;52.806;18.270;2024-01-06T03:05:01;36.03;;;13.80;;
51927;SDS011;37953;52.806;18.270;2024-01-06T03:07:27;34.08;;;12.57;;
51927;SDS011;37953;52.806;18.270;2024-01-06T03:09:54;32.95;;;12.52;;
51927;SDS011;37953;52.806;18.270;2024-01-06T03:12:19;28.52;;;11.98;;
51927;SDS011;37953;52.806;18.270;2024-01-06T03:14:58;27.67;;;11.25;;
51927;SDS011;37953;52.806;18.270;2024-01-06T03:17:24;28.50;;;11.68;;
51927;SDS011;37953;52.806;18.270;2024-01-06T03:19:51;26.58;;;10.70;;
51927;SDS011;37953;52.806;18.270;2024-01-06T03:22:17;23.10;;;10.75;;
51927;SDS011;37953;52.806;18.270;2024-01-06T03:24:43;22.88;;;10.90;;
51927;SDS011;37953;52.806;18.270;2024-01-06T03:27:09;27.58;;;11.10;;
51927;SDS011;37953;52.806;18.270;2024-01-06T03:29:35;21.75;;;10.38;;
51927;SDS011;37953;52.806;18.270;2024-01-06T03:32:01;60.13;;;19.75;;
51927;SDS011;37953;52.806;18.270;2024-01-06T03:34:27;49.20;;;22.10;;
51927;SDS011;37953;52.806;18.270;2024-01-06T03:36:53;39.80;;;17.05;;
51927;SDS011;37953;52.806;18.270;2024-01-06T03:39:19;51.47;;;18.38;;
51927;SDS011;37953;52.806;18.270;2024-01-06T03:41:45;48.22;;;16.30;;
51927;SDS011;37953;52.806;18.270;2024-01-06T03:44:11;42.50;;;14.20;;
51927;SDS011;37953;52.806;18.270;2024-01-06T03:46:37;35.58;;;13.15;;
51927;SDS011;37953;52.806;18.270;2024-01-06T03:49:03;32.72;;;12.85;;
51927;SDS011;37953;52.806;18.270;2024-01-06T03:51:29;33.40;;;11.75;;
51927;SDS011;37953;52.806;18.270;2024-01-06T03:53:55;34.60;;;11.93;;
51927;SDS011;37953;52.806;18.270;2024-01-06T03:56:21;31.55;;;12.02;;
51927;SDS011;37953;52.806;18.270;2024-01-06T03:58:47;25.83;;;11.00;;
51927;SDS011;37953;52.806;18.270;2024-01-06T04:01:13;28.77;;;11.50;;
51927;SDS011;37953;52.806;18.270;2024-01-06T04:03:39;30.35;;;11.00;;
51927;SDS011;37953;52.806;18.270;2024-01-06T04:06:06;28.55;;;11.40;;
51927;SDS011;37953;52.806;18.270;2024-01-06T04:08:32;28.38;;;10.32;;
51927;SDS011;37953;52.806;18.270;2024-01-06T04:10:58;25.80;;;10.15;;
51927;SDS011;37953;52.806;18.270;2024-01-06T04:13:24;28.40;;;10.48;;
51927;SDS011;37953;52.806;18.270;2024-01-06T04:15:51;25.90;;;10.30;;
51927;SDS011;37953;52.806;18.270;2024-01-06T04:18:17;24.73;;;10.80;;
51927;SDS011;37953;52.806;18.270;2024-01-06T04:20:46;31.95;;;11.35;;
51927;SDS011;37953;52.806;18.270;2024-01-06T04:23:12;23.80;;;9.90;;
51927;SDS011;37953;52.806;18.270;2024-01-06T04:25:38;25.70;;;9.98;;
51927;SDS011;37953;52.806;18.270;2024-01-06T04:28:04;31.13;;;9.95;;
51927;SDS011;37953;52.806;18.270;2024-01-06T04:30:30;33.72;;;10.32;;
51927;SDS011;37953;52.806;18.270;2024-01-06T04:32:56;23.30;;;9.82;;
51927;SDS011;37953;52.806;18.270;2024-01-06T04:35:23;23.45;;;10.15;;
51927;SDS011;37953;52.806;18.270;2024-01-06T04:37:49;21.85;;;9.77;;
51927;SDS011;37953;52.806;18.270;2024-01-06T04:40:15;26.02;;;10.10;;
51927;SDS011;37953;52.806;18.270;2024-01-06T04:42:42;20.63;;;9.38;;
51927;SDS011;37953;52.806;18.270;2024-01-06T04:45:08;22.13;;;9.30;;
51927;SDS011;37953;52.806;18.270;2024-01-06T04:47:34;29.10;;;10.30;;
51927;SDS011;37953;52.806;18.270;2024-01-06T04:50:00;26.77;;;10.68;;
51927;SDS011;37953;52.806;18.270;2024-01-06T04:52:26;28.25;;;13.45;;
51927;SDS011;37953;52.806;18.270;2024-01-06T04:54:52;29.38;;;14.50;;
51927;SDS011;37953;52.806;18.270;2024-01-06T04:57:18;27.55;;;12.48;;
51927;SDS011;37953;52.806;18.270;2024-01-06T04:59:46;29.38;;;12.48;;
51927;SDS011;37953;52.806;18.270;2024-01-06T05:02:12;28.35;;;10.95;;
51927;SDS011;37953;52.806;18.270;2024-01-06T05:04:38;20.20;;;8.55;;
51927;SDS011;37953;52.806;18.270;2024-01-06T05:07:04;21.60;;;8.80;;
51927;SDS011;37953;52.806;18.270;2024-01-06T05:09:30;21.38;;;8.43;;
51927;SDS011;37953;52.806;18.270;2024-01-06T05:11:56;19.75;;;8.25;;
51927;SDS011;37953;52.806;18.270;2024-01-06T05:14:22;21.05;;;8.85;;
51927;SDS011;37953;52.806;18.270;2024-01-06T05:16:48;19.58;;;7.93;;
51927;SDS011;37953;52.806;18.270;2024-01-06T05:19:14;20.83;;;8.25;;
51927;SDS011;37953;52.806;18.270;2024-01-06T05:21:46;19.38;;;7.40;;
51927;SDS011;37953;52.806;18.270;2024-01-06T05:24:13;17.23;;;7.88;;
51927;SDS011;37953;52.806;18.270;2024-01-06T05:26:39;21.15;;;8.70;;
51927;SDS011;37953;52.806;18.270;2024-01-06T05:29:05;21.63;;;7.78;;
51927;SDS011;37953;52.806;18.270;2024-01-06T05:31:31;23.90;;;8.80;;
51927;SDS011;37953;52.806;18.270;2024-01-06T05:33:57;22.63;;;9.32;;
51927;SDS011;37953;52.806;18.270;2024-01-06T05:36:23;31.05;;;9.13;;
51927;SDS011;37953;52.806;18.270;2024-01-06T05:38:49;18.38;;;7.85;;
51927;SDS011;37953;52.806;18.270;2024-01-06T05:41:15;22.83;;;7.88;;
51927;SDS011;37953;52.806;18.270;2024-01-06T05:43:41;19.65;;;8.80;;
51927;SDS011;37953;52.806;18.270;2024-01-06T05:46:07;24.45;;;8.30;;
51927;SDS011;37953;52.806;18.270;2024-01-06T05:48:33;24.48;;;8.13;;
51927;SDS011;37953;52.806;18.270;2024-01-06T05:50:59;27.60;;;7.53;;
51927;SDS011;37953;52.806;18.270;2024-01-06T05:53:25;23.45;;;8.70;;
51927;SDS011;37953;52.806;18.270;2024-01-06T05:55:53;20.10;;;8.65;;
51927;SDS011;37953;52.806;18.270;2024-01-06T05:58:19;17.02;;;8.02;;
51927;SDS011;37953;52.806;18.270;2024-01-06T06:00:46;16.33;;;7.18;;
51927;SDS011;37953;52.806;18.270;2024-01-06T06:03:12;27.42;;;8.23;;
51927;SDS011;37953;52.806;18.270;2024-01-06T06:05:38;21.63;;;7.97;;
51927;SDS011;37953;52.806;18.270;2024-01-06T06:08:04;20.98;;;7.20;;
51927;SDS011;37953;52.806;18.270;2024-01-06T06:10:30;17.83;;;7.10;;
51927;SDS011;37953;52.806;18.270;2024-01-06T06:13:10;20.15;;;7.80;;
51927;SDS011;37953;52.806;18.270;2024-01-06T06:15:36;17.20;;;7.03;;
51927;SDS011;37953;52.806;18.270;2024-01-06T06:18:06;16.20;;;7.35;;
51927;SDS011;37953;52.806;18.270;2024-01-06T06:20:32;17.90;;;7.53;;
51927;SDS011;37953;52.806;18.270;2024-01-06T06:22:58;16.85;;;7.43;;
51927;SDS011;37953;52.806;18.270;2024-01-06T06:25:24;18.77;;;7.90;;
51927;SDS011;37953;52.806;18.270;2024-01-06T06:27:49;17.35;;;7.45;;
51927;SDS011;37953;52.806;18.270;2024-01-06T06:30:15;18.25;;;7.60;;
51927;SDS011;37953;52.806;18.270;2024-01-06T06:32:41;15.90;;;7.22;;
51927;SDS011;37953;52.806;18.270;2024-01-06T06:35:08;20.00;;;7.57;;
51927;SDS011;37953;52.806;18.270;2024-01-06T06:37:34;18.75;;;7.55;;
51927;SDS011;37953;52.806;18.270;2024-01-06T06:39:59;16.83;;;7.32;;
51927;SDS011;37953;52.806;18.270;2024-01-06T06:42:25;16.42;;;7.32;;
51927;SDS011;37953;52.806;18.270;2024-01-06T06:44:51;16.40;;;7.13;;
51927;SDS011;37953;52.806;18.270;2024-01-06T06:47:18;18.27;;;6.65;;
51927;SDS011;37953;52.806;18.270;2024-01-06T06:49:44;17.25;;;7.63;;
51927;SDS011;37953;52.806;18.270;2024-01-06T06:52:10;14.95;;;6.60;;
51927;SDS011;37953;52.806;18.270;2024-01-06T06:54:37;16.83;;;6.95;;
51927;SDS011;37953;52.806;18.270;2024-01-06T06:57:04;19.05;;;7.40;;
51927;SDS011;37953;52.806;18.270;2024-01-06T06:59:29;17.55;;;7.05;;
51927;SDS011;37953;52.806;18.270;2024-01-06T07:01:56;17.73;;;7.22;;
51927;SDS011;37953;52.806;18.270;2024-01-06T07:04:22;14.88;;;6.60;;
51927;SDS011;37953;52.806;18.270;2024-01-06T07:06:49;13.77;;;6.22;;
51927;SDS011;37953;52.806;18.270;2024-01-06T07:09:15;12.15;;;5.50;;
51927;SDS011;37953;52.806;18.270;2024-01-06T07:11:41;14.40;;;6.18;;
51927;SDS011;37953;52.806;18.270;2024-01-06T07:14:06;14.40;;;6.57;;
51927;SDS011;37953;52.806;18.270;2024-01-06T07:16:32;26.83;;;6.20;;
51927;SDS011;37953;52.806;18.270;2024-01-06T07:18:58;14.10;;;5.72;;
51927;SDS011;37953;52.806;18.270;2024-01-06T07:21:24;13.63;;;5.72;;
51927;SDS011;37953;52.806;18.270;2024-01-06T07:23:50;12.85;;;5.80;;
51927;SDS011;37953;52.806;18.270;2024-01-06T07:26:16;13.05;;;5.80;;
51927;SDS011;37953;52.806;18.270;2024-01-06T07:28:43;13.23;;;6.15;;
51927;SDS011;37953;52.806;18.270;2024-01-06T07:31:09;26.60;;;9.15;;
51927;SDS011;37953;52.806;18.270;2024-01-06T07:33:35;57.05;;;20.90;;
51927;SDS011;37953;52.806;18.270;2024-01-06T07:36:01;62.67;;;20.80;;
51927;SDS011;37953;52.806;18.270;2024-01-06T07:38:27;29.77;;;9.20;;
51927;SDS011;37953;52.806;18.270;2024-01-06T07:40:56;59.85;;;8.10;;
51927;SDS011;37953;52.806;18.270;2024-01-06T07:43:22;16.13;;;6.35;;
51927;SDS011;37953;52.806;18.270;2024-01-06T07:45:48;14.95;;;5.68;;
51927;SDS011;37953;52.806;18.270;2024-01-06T07:48:16;23.85;;;8.13;;
51927;SDS011;37953;52.806;18.270;2024-01-06T07:50:42;18.58;;;8.57;;
51927;SDS011;37953;52.806;18.270;2024-01-06T07:53:08;18.30;;;7.85;;
51927;SDS011;37953;52.806;18.270;2024-01-06T07:55:34;27.25;;;7.88;;
51927;SDS011;37953;52.806;18.270;2024-01-06T07:58:01;27.38;;;6.20;;
51927;SDS011;37953;52.806;18.270;2024-01-06T08:00:27;26.77;;;7.00;;
51927;SDS011;37953;52.806;18.270;2024-01-06T08:02:53;18.55;;;6.15;;
51927;SDS011;37953;52.806;18.270;2024-01-06T08:05:20;20.88;;;5.95;;
51927;SDS011;37953;52.806;18.270;2024-01-06T08:07:46;15.10;;;5.65;;
51927;SDS011;37953;52.806;18.270;2024-01-06T08:10:12;16.40;;;5.70;;
51927;SDS011;37953;52.806;18.270;2024-01-06T08:12:38;15.13;;;5.45;;
51927;SDS011;37953;52.806;18.270;2024-01-06T08:15:17;13.52;;;5.22;;
51927;SDS011;37953;52.806;18.270;2024-01-06T08:17:43;15.55;;;5.57;;
51927;SDS011;37953;52.806;18.270;2024-01-06T08:20:10;12.70;;;4.80;;
51927;SDS011;37953;52.806;18.270;2024-01-06T08:22:36;14.65;;;5.22;;
51927;SDS011;37953;52.806;18.270;2024-01-06T08:25:02;13.15;;;5.20;;
51927;SDS011;37953;52.806;18.270;2024-01-06T08:27:28;12.75;;;5.00;;
51927;SDS011;37953;52.806;18.270;2024-01-06T08:29:54;10.93;;;4.15;;
51927;SDS011;37953;52.806;18.270;2024-01-06T08:32:21;11.65;;;4.22;;
51927;SDS011;37953;52.806;18.270;2024-01-06T08:34:47;11.20;;;4.80;;
51927;SDS011;37953;52.806;18.270;2024-01-06T08:37:13;12.82;;;4.72;;
51927;SDS011;37953;52.806;18.270;2024-01-06T08:39:40;9.05;;;4.22;;
51927;SDS011;37953;52.806;18.270;2024-01-06T08:42:06;10.55;;;4.40;;
51927;SDS011;37953;52.806;18.270;2024-01-06T08:44:35;9.60;;;4.47;;
51927;SDS011;37953;52.806;18.270;2024-01-06T08:47:01;15.40;;;4.63;;
51927;SDS011;37953;52.806;18.270;2024-01-06T08:49:28;12.52;;;5.35;;
51927;SDS011;37953;52.806;18.270;2024-01-06T08:51:54;14.35;;;5.40;;
51927;SDS011;37953;52.806;18.270;2024-01-06T08:54:20;11.43;;;4.65;;
51927;SDS011;37953;52.806;18.270;2024-01-06T08:56:46;18.90;;;5.00;;
51927;SDS011;37953;52.806;18.270;2024-01-06T08:59:12;22.42;;;5.32;;
51927;SDS011;37953;52.806;18.270;2024-01-06T09:01:38;9.90;;;4.45;;
51927;SDS011;37953;52.806;18.270;2024-01-06T09:04:05;12.02;;;4.75;;
51927;SDS011;37953;52.806;18.270;2024-01-06T09:06:34;12.20;;;4.38;;
51927;SDS011;37953;52.806;18.270;2024-01-06T09:09:01;10.23;;;3.88;;
51927;SDS011;37953;52.806;18.270;2024-01-06T09:11:27;13.07;;;4.75;;
51927;SDS011;37953;52.806;18.270;2024-01-06T09:13:53;11.57;;;4.50;;
51927;SDS011;37953;52.806;18.270;2024-01-06T09:16:19;14.02;;;4.38;;
51927;SDS011;37953;52.806;18.270;2024-01-06T09:18:46;15.45;;;4.20;;
51927;SDS011;37953;52.806;18.270;2024-01-06T09:21:11;11.25;;;4.18;;
51927;SDS011;37953;52.806;18.270;2024-01-06T09:23:37;18.27;;;4.55;;
51927;SDS011;37953;52.806;18.270;2024-01-06T09:26:03;12.95;;;4.03;;
51927;SDS011;37953;52.806;18.270;2024-01-06T09:28:30;11.05;;;4.20;;
51927;SDS011;37953;52.806;18.270;2024-01-06T09:30:55;30.85;;;6.15;;
51927;SDS011;37953;52.806;18.270;2024-01-06T09:33:22;7.90;;;3.60;;
51927;SDS011;37953;52.806;18.270;2024-01-06T09:35:48;17.17;;;4.85;;
51927;SDS011;37953;52.806;18.270;2024-01-06T09:38:15;13.32;;;4.63;;
51927;SDS011;37953;52.806;18.270;2024-01-06T09:40:41;12.40;;;4.60;;
51927;SDS011;37953;52.806;18.270;2024-01-06T09:43:12;18.63;;;5.22;;
51927;SDS011;37953;52.806;18.270;2024-01-06T09:45:39;17.92;;;5.90;;
51927;SDS011;37953;52.806;18.270;2024-01-06T09:48:11;14.70;;;5.05;;
51927;SDS011;37953;52.806;18.270;2024-01-06T09:50:40;16.40;;;5.60;;
51927;SDS011;37953;52.806;18.270;2024-01-06T09:53:08;21.13;;;5.53;;
51927;SDS011;37953;52.806;18.270;2024-01-06T09:55:36;15.52;;;5.25;;
51927;SDS011;37953;52.806;18.270;2024-01-06T09:58:10;15.00;;;5.00;;
51927;SDS011;37953;52.806;18.270;2024-01-06T10:00:36;12.80;;;4.50;;
51927;SDS011;37953;52.806;18.270;2024-01-06T10:03:02;14.75;;;5.15;;
51927;SDS011;37953;52.806;18.270;2024-01-06T10:05:28;11.70;;;4.80;;
51927;SDS011;37953;52.806;18.270;2024-01-06T10:07:56;10.65;;;4.63;;
51927;SDS011;37953;52.806;18.270;2024-01-06T10:10:22;13.90;;;5.25;;
51927;SDS011;37953;52.806;18.270;2024-01-06T10:12:48;26.40;;;6.57;;
51927;SDS011;37953;52.806;18.270;2024-01-06T10:15:18;14.68;;;5.18;;
51927;SDS011;37953;52.806;18.270;2024-01-06T10:17:46;14.10;;;5.18;;
51927;SDS011;37953;52.806;18.270;2024-01-06T10:20:12;16.50;;;5.35;;
51927;SDS011;37953;52.806;18.270;2024-01-06T10:22:42;13.23;;;5.07;;
51927;SDS011;37953;52.806;18.270;2024-01-06T10:25:09;14.73;;;5.50;;
51927;SDS011;37953;52.806;18.270;2024-01-06T10:27:39;18.80;;;5.70;;
51927;SDS011;37953;52.806;18.270;2024-01-06T10:30:07;14.57;;;5.10;;
51927;SDS011;37953;52.806;18.270;2024-01-06T10:32:35;15.30;;;4.97;;
51927;SDS011;37953;52.806;18.270;2024-01-06T10:35:04;17.02;;;6.15;;
51927;SDS011;37953;52.806;18.270;2024-01-06T10:37:32;14.93;;;5.97;;
51927;SDS011;37953;52.806;18.270;2024-01-06T10:40:08;15.60;;;5.95;;
51927;SDS011;37953;52.806;18.270;2024-01-06T10:42:38;14.70;;;5.40;;
51927;SDS011;37953;52.806;18.270;2024-01-06T10:45:14;18.50;;;6.40;;
51927;SDS011;37953;52.806;18.270;2024-01-06T10:47:41;15.00;;;5.35;;
51927;SDS011;37953;52.806;18.270;2024-01-06T10:50:11;13.05;;;4.75;;
51927;SDS011;37953;52.806;18.270;2024-01-06T10:52:38;12.70;;;5.00;;
51927;SDS011;37953;52.806;18.270;2024-01-06T10:55:05;12.57;;;4.80;;
51927;SDS011;37953;52.806;18.270;2024-01-06T10:57:31;17.23;;;5.57;;
51927;SDS011;37953;52.806;18.270;2024-01-06T10:59:58;41.95;;;9.15;;
51927;SDS011;37953;52.806;18.270;2024-01-06T11:02:26;15.77;;;5.72;;
51927;SDS011;37953;52.806;18.270;2024-01-06T11:04:52;18.08;;;5.68;;
51927;SDS011;37953;52.806;18.270;2024-01-06T11:07:19;17.92;;;5.40;;
51927;SDS011;37953;52.806;18.270;2024-01-06T11:09:48;15.38;;;4.82;;
51927;SDS011;37953;52.806;18.270;2024-01-06T11:12:18;13.48;;;4.80;;
51927;SDS011;37953;52.806;18.270;2024-01-06T11:14:45;13.23;;;4.78;;
51927;SDS011;37953;52.806;18.270;2024-01-06T11:17:11;13.05;;;4.55;;
51927;SDS011;37953;52.806;18.270;2024-01-06T11:24:43;11.00;;;3.97;;
51927;SDS011;37953;52.806;18.270;2024-01-06T11:27:17;12.43;;;4.70;;
51927;SDS011;37953;52.806;18.270;2024-01-06T11:29:45;29.15;;;9.68;;
51927;SDS011;37953;52.806;18.270;2024-01-06T11:32:19;99.38;;;24.15;;
51927;SDS011;37953;52.806;18.270;2024-01-06T11:34:51;52.03;;;18.33;;
51927;SDS011;37953;52.806;18.270;2024-01-06T11:37:35;43.25;;;14.85;;
51927;SDS011;37953;52.806;18.270;2024-01-06T11:40:15;30.48;;;10.60;;
51927;SDS011;37953;52.806;18.270;2024-01-06T11:42:43;44.15;;;17.23;;
51927;SDS011;37953;52.806;18.270;2024-01-06T11:45:11;38.03;;;13.73;;
51927;SDS011;37953;52.806;18.270;2024-01-06T11:47:40;21.30;;;7.20;;
51927;SDS011;37953;52.806;18.270;2024-01-06T11:50:12;18.92;;;6.57;;
51927;SDS011;37953;52.806;18.270;2024-01-06T11:52:38;16.02;;;5.80;;
51927;SDS011;37953;52.806;18.270;2024-01-06T11:55:04;17.20;;;5.03;;
51927;SDS011;37953;52.806;18.270;2024-01-06T11:57:34;21.38;;;5.18;;
51927;SDS011;37953;52.806;18.270;2024-01-06T11:59:59;14.23;;;4.53;;
51927;SDS011;37953;52.806;18.270;2024-01-06T12:02:25;13.15;;;3.95;;
51927;SDS011;37953;52.806;18.270;2024-01-06T12:04:52;17.70;;;4.97;;
51927;SDS011;37953;52.806;18.270;2024-01-06T12:07:19;13.88;;;4.63;;
51927;SDS011;37953;52.806;18.270;2024-01-06T12:09:47;15.18;;;4.78;;
51927;SDS011;37953;52.806;18.270;2024-01-06T12:12:26;13.65;;;4.15;;
51927;SDS011;37953;52.806;18.270;2024-01-06T12:14:52;16.55;;;3.42;;
51927;SDS011;37953;52.806;18.270;2024-01-06T12:17:19;12.60;;;4.00;;
51927;SDS011;37953;52.806;18.270;2024-01-06T12:19:51;22.08;;;4.95;;
51927;SDS011;37953;52.806;18.270;2024-01-06T12:22:23;13.50;;;4.13;;
51927;SDS011;37953;52.806;18.270;2024-01-06T12:24:55;11.32;;;3.67;;
51927;SDS011;37953;52.806;18.270;2024-01-06T12:27:21;15.27;;;3.97;;
51927;SDS011;37953;52.806;18.270;2024-01-06T12:29:47;15.00;;;4.05;;
51927;SDS011;37953;52.806;18.270;2024-01-06T12:32:13;70.38;;;15.63;;
51927;SDS011;37953;52.806;18.270;2024-01-06T12:34:39;27.33;;;9.77;;
51927;SDS011;37953;52.806;18.270;2024-01-06T12:37:06;27.40;;;9.35;;
51927;SDS011;37953;52.806;18.270;2024-01-06T12:39:33;22.63;;;7.80;;
51927;SDS011;37953;52.806;18.270;2024-01-06T12:42:00;16.73;;;5.50;;
51927;SDS011;37953;52.806;18.270;2024-01-06T12:44:29;16.88;;;5.32;;
51927;SDS011;37953;52.806;18.270;2024-01-06T12:47:02;18.48;;;5.85;;
51927;SDS011;37953;52.806;18.270;2024-01-06T12:49:28;19.98;;;6.38;;
51927;SDS011;37953;52.806;18.270;2024-01-06T12:51:54;58.80;;;13.98;;
51927;SDS011;37953;52.806;18.270;2024-01-06T12:54:20;19.77;;;6.13;;
51927;SDS011;37953;52.806;18.270;2024-01-06T12:56:46;19.70;;;5.95;;
51927;SDS011;37953;52.806;18.270;2024-01-06T12:59:12;20.63;;;5.65;;
51927;SDS011;37953;52.806;18.270;2024-01-06T13:01:38;37.15;;;10.73;;
51927;SDS011;37953;52.806;18.270;2024-01-06T13:04:10;70.45;;;18.05;;
51927;SDS011;37953;52.806;18.270;2024-01-06T13:06:38;54.47;;;14.48;;
51927;SDS011;37953;52.806;18.270;2024-01-06T13:09:05;40.22;;;10.27;;
51927;SDS011;37953;52.806;18.270;2024-01-06T13:11:33;35.45;;;9.13;;
51927;SDS011;37953;52.806;18.270;2024-01-06T13:14:00;26.80;;;8.38;;
51927;SDS011;37953;52.806;18.270;2024-01-06T13:16:27;24.70;;;8.25;;
51927;SDS011;37953;52.806;18.270;2024-01-06T13:18:53;23.52;;;7.45;;
51927;SDS011;37953;52.806;18.270;2024-01-06T13:21:20;19.75;;;7.18;;
51927;SDS011;37953;52.806;18.270;2024-01-06T13:23:46;20.83;;;7.10;;
51927;SDS011;37953;52.806;18.270;2024-01-06T13:26:12;19.00;;;7.05;;
51927;SDS011;37953;52.806;18.270;2024-01-06T13:28:38;24.25;;;7.57;;
51927;SDS011;37953;52.806;18.270;2024-01-06T13:31:04;21.52;;;6.70;;
51927;SDS011;37953;52.806;18.270;2024-01-06T13:33:30;17.25;;;6.03;;
51927;SDS011;37953;52.806;18.270;2024-01-06T13:35:56;17.83;;;5.55;;
51927;SDS011;37953;52.806;18.270;2024-01-06T13:38:23;16.60;;;5.65;;
51927;SDS011;37953;52.806;18.270;2024-01-06T13:40:55;17.23;;;5.75;;
51927;SDS011;37953;52.806;18.270;2024-01-06T13:43:28;17.75;;;5.45;;
51927;SDS011;37953;52.806;18.270;2024-01-06T13:45:54;16.75;;;5.50;;
51927;SDS011;37953;52.806;18.270;2024-01-06T13:48:21;17.55;;;5.43;;
51927;SDS011;37953;52.806;18.270;2024-01-06T13:50:47;14.63;;;4.65;;
51927;SDS011;37953;52.806;18.270;2024-01-06T13:53:13;13.40;;;4.05;;
51927;SDS011;37953;52.806;18.270;2024-01-06T13:55:42;13.27;;;3.85;;
51927;SDS011;37953;52.806;18.270;2024-01-06T13:58:08;12.65;;;3.97;;
51927;SDS011;37953;52.806;18.270;2024-01-06T14:00:35;10.43;;;3.80;;
51927;SDS011;37953;52.806;18.270;2024-01-06T14:03:02;11.77;;;3.88;;
51927;SDS011;37953;52.806;18.270;2024-01-06T14:05:29;10.88;;;3.45;;
51927;SDS011;37953;52.806;18.270;2024-01-06T14:07:55;9.38;;;3.45;;
51927;SDS011;37953;52.806;18.270;2024-01-06T14:10:21;11.35;;;3.67;;
51927;SDS011;37953;52.806;18.270;2024-01-06T14:12:47;11.20;;;3.53;;
51927;SDS011;37953;52.806;18.270;2024-01-06T14:15:13;11.43;;;4.22;;
51927;SDS011;37953;52.806;18.270;2024-01-06T14:17:39;10.93;;;3.83;;
51927;SDS011;37953;52.806;18.270;2024-01-06T14:20:11;18.38;;;4.30;;
51927;SDS011;37953;52.806;18.270;2024-01-06T14:22:38;9.80;;;3.38;;
51927;SDS011;37953;52.806;18.270;2024-01-06T14:25:04;11.07;;;3.47;;
51927;SDS011;37953;52.806;18.270;2024-01-06T14:27:31;11.00;;;4.03;;